sensor_id;sensor_type;location;lat;lon;timestamp;P1;durP1;ratioP1;P2;durP2;ratioP2
9657;SDS011;4867;48.112;11.622;2022-10-31T00:01:37;11.87;;;7.60;;
9657;SDS011;4867;48.112;11.622;2022-10-31T00:04:05;13.10;;;7.53;;
9657;SDS011;4867;48.112;11.622;2022-10-31T00:06:32;16.60;;;8.17;;
9657;SDS011;4867;48.112;11.622;2022-10-31T00:09:00;12.57;;;7.57;;
9657;SDS011;4867;48.112;11.622;2022-10-31T00:11:29;9.67;;;7.30;;
9657;SDS011;4867;48.112;11.622;2022-10-31T00:13:57;12.53;;;7.33;;
9657;SDS011;4867;48.112;11.622;2022-10-31T00:16:25;12.00;;;7.30;;
9657;SDS011;4867;48.112;11.622;2022-10-31T00:18:54;9.87;;;6.40;;
9657;SDS011;4867;48.112;11.622;2022-10-31T00:21:23;12.57;;;6.73;;
9657;SDS011;4867;48.112;11.622;2022-10-31T00:23:51;9.20;;;6.30;;
9657;SDS011;4867;48.112;11.622;2022-10-31T00:26:18;11.47;;;6.73;;
9657;SDS011;4867;48.112;11.622;2022-10-31T00:28:46;11.50;;;5.83;;
9657;SDS011;4867;48.112;11.622;2022-10-31T00:31:14;13.53;;;6.60;;
9657;SDS011;4867;48.112;11.622;2022-10-31T00:33:41;7.77;;;5.63;;
9657;SDS011;4867;48.112;11.622;2022-10-31T00:36:13;9.20;;;6.20;;
9657;SDS011;4867;48.112;11.622;2022-10-31T00:38:42;10.67;;;6.47;;
9657;SDS011;4867;48.112;11.622;2022-10-31T00:41:10;10.67;;;6.60;;
9657;SDS011;4867;48.112;11.622;2022-10-31T00:43:40;7.70;;;5.67;;
9657;SDS011;4867;48.112;11.622;2022-10-31T00:46:08;8.73;;;6.20;;
9657;SDS011;4867;48.112;11.622;2022-10-31T00:48:36;9.23;;;6.23;;
9657;SDS011;4867;48.112;11.622;2022-10-31T00:51:04;9.63;;;6.13;;
9657;SDS011;4867;48.112;11.622;2022-10-31T00:53:32;9.57;;;6.00;;
9657;SDS011;4867;48.112;11.622;2022-10-31T00:56:00;13.50;;;6.60;;
9657;SDS011;4867;48.112;11.622;2022-10-31T00:58:27;11.17;;;5.87;;
9657;SDS011;4867;48.112;11.622;2022-10-31T01:00:54;9.73;;;5.80;;
9657;SDS011;4867;48.112;11.622;2022-10-31T01:03:23;8.67;;;5.63;;
9657;SDS011;4867;48.112;11.622;2022-10-31T01:05:59;12.20;;;5.73;;
9657;SDS011;4867;48.112;11.622;2022-10-31T01:08:32;11.07;;;5.83;;
9657;SDS011;4867;48.112;11.622;2022-10-31T01:11:13;10.10;;;5.87;;
9657;SDS011;4867;48.112;11.622;2022-10-31T01:13:42;9.40;;;5.30;;
9657;SDS011;4867;48.112;11.622;2022-10-31T01:16:11;13.70;;;6.33;;
9657;SDS011;4867;48.112;11.622;2022-10-31T01:18:45;11.43;;;6.17;;
9657;SDS011;4867;48.112;11.622;2022-10-31T01:21:13;10.03;;;6.10;;
9657;SDS011;4867;48.112;11.622;2022-10-31T01:23:43;13.83;;;6.60;;
9657;SDS011;4867;48.112;11.622;2022-10-31T01:26:13;11.53;;;6.10;;
9657;SDS011;4867;48.112;11.622;2022-10-31T01:28:44;11.77;;;5.80;;
9657;SDS011;4867;48.112;11.622;2022-10-31T01:31:13;10.67;;;5.47;;
9657;SDS011;4867;48.112;11.622;2022-10-31T01:33:42;11.57;;;5.73;;
9657;SDS011;4867;48.112;11.622;2022-10-31T01:36:24;8.43;;;4.83;;
9657;SDS011;4867;48.112;11.622;2022-10-31T01:38:57;8.27;;;5.70;;
9657;SDS011;4867;48.112;11.622;2022-10-31T01:41:28;15.63;;;6.13;;
9657;SDS011;4867;48.112;11.622;2022-10-31T01:44:00;8.30;;;5.77;;
9657;SDS011;4867;48.112;11.622;2022-10-31T01:46:52;10.90;;;5.90;;
9657;SDS011;4867;48.112;11.622;2022-10-31T01:49:38;10.53;;;6.10;;
9657;SDS011;4867;48.112;11.622;2022-10-31T01:52:18;10.37;;;5.73;;
9657;SDS011;4867;48.112;11.622;2022-10-31T01:55:00;8.63;;;5.20;;
9657;SDS011;4867;48.112;11.622;2022-10-31T01:57:29;11.30;;;5.40;;
9657;SDS011;4867;48.112;11.622;2022-10-31T01:59:59;10.97;;;5.10;;
9657;SDS011;4867;48.112;11.622;2022-10-31T02:02:38;8.23;;;4.77;;
9657;SDS011;4867;48.112;11.622;2022-10-31T02:05:12;10.37;;;5.50;;
9657;SDS011;4867;48.112;11.622;2022-10-31T02:07:47;11.60;;;5.50;;
9657;SDS011;4867;48.112;11.622;2022-10-31T02:10:26;9.60;;;4.83;;
9657;SDS011;4867;48.112;11.622;2022-10-31T02:12:56;13.30;;;5.70;;
9657;SDS011;4867;48.112;11.622;2022-10-31T02:15:27;8.77;;;5.83;;
9657;SDS011;4867;48.112;11.622;2022-10-31T02:17:56;12.97;;;5.50;;
9657;SDS011;4867;48.112;11.622;2022-10-31T02:20:26;11.87;;;5.93;;
9657;SDS011;4867;48.112;11.622;2022-10-31T02:26:49;8.80;;;5.23;;
9657;SDS011;4867;48.112;11.622;2022-10-31T02:35:30;11.87;;;6.00;;
9657;SDS011;4867;48.112;11.622;2022-10-31T02:40:51;9.33;;;5.30;;
9657;SDS011;4867;48.112;11.622;2022-10-31T02:48:40;9.33;;;5.70;;
9657;SDS011;4867;48.112;11.622;2022-10-31T02:51:09;8.40;;;5.40;;
9657;SDS011;4867;48.112;11.622;2022-10-31T02:53:38;8.27;;;5.47;;
9657;SDS011;4867;48.112;11.622;2022-10-31T02:59:01;9.77;;;5.10;;
9657;SDS011;4867;48.112;11.622;2022-10-31T03:04:17;12.60;;;6.13;;
9657;SDS011;4867;48.112;11.622;2022-10-31T03:12:28;6.30;;;4.60;;
9657;SDS011;4867;48.112;11.622;2022-10-31T03:15:11;9.23;;;5.23;;
9657;SDS011;4867;48.112;11.622;2022-10-31T03:18:07;7.13;;;4.80;;
9657;SDS011;4867;48.112;11.622;2022-10-31T03:20:39;9.73;;;4.83;;
9657;SDS011;4867;48.112;11.622;2022-10-31T03:23:13;9.40;;;4.93;;
9657;SDS011;4867;48.112;11.622;2022-10-31T03:25:46;11.00;;;4.80;;
9657;SDS011;4867;48.112;11.622;2022-10-31T03:28:16;9.27;;;4.63;;
9657;SDS011;4867;48.112;11.622;2022-10-31T03:30:50;9.47;;;5.03;;
9657;SDS011;4867;48.112;11.622;2022-10-31T03:33:21;7.97;;;4.60;;
9657;SDS011;4867;48.112;11.622;2022-10-31T03:35:55;8.20;;;5.63;;
9657;SDS011;4867;48.112;11.622;2022-10-31T03:38:26;8.33;;;5.53;;
9657;SDS011;4867;48.112;11.622;2022-10-31T03:40:54;11.77;;;4.90;;
9657;SDS011;4867;48.112;11.622;2022-10-31T03:43:26;10.63;;;5.23;;
9657;SDS011;4867;48.112;11.622;2022-10-31T03:45:59;8.00;;;4.40;;
9657;SDS011;4867;48.112;11.622;2022-10-31T03:48:27;8.70;;;4.47;;
9657;SDS011;4867;48.112;11.622;2022-10-31T03:51:04;8.73;;;4.53;;
9657;SDS011;4867;48.112;11.622;2022-10-31T03:53:48;6.67;;;4.33;;
9657;SDS011;4867;48.112;11.622;2022-10-31T03:56:33;11.17;;;4.53;;
9657;SDS011;4867;48.112;11.622;2022-10-31T03:59:09;14.67;;;4.87;;
9657;SDS011;4867;48.112;11.622;2022-10-31T04:01:49;11.57;;;5.17;;
9657;SDS011;4867;48.112;11.622;2022-10-31T04:04:20;7.73;;;5.13;;
9657;SDS011;4867;48.112;11.622;2022-10-31T04:06:48;9.73;;;4.53;;
9657;SDS011;4867;48.112;11.622;2022-10-31T04:09:18;8.97;;;4.73;;
9657;SDS011;4867;48.112;11.622;2022-10-31T04:11:48;10.13;;;4.33;;
9657;SDS011;4867;48.112;11.622;2022-10-31T04:14:32;8.60;;;4.37;;
9657;SDS011;4867;48.112;11.622;2022-10-31T04:17:02;9.93;;;5.20;;
9657;SDS011;4867;48.112;11.622;2022-10-31T04:19:37;8.60;;;4.70;;
9657;SDS011;4867;48.112;11.622;2022-10-31T04:22:04;10.33;;;4.93;;
9657;SDS011;4867;48.112;11.622;2022-10-31T04:24:31;14.57;;;5.33;;
9657;SDS011;4867;48.112;11.622;2022-10-31T04:26:59;9.77;;;5.30;;
9657;SDS011;4867;48.112;11.622;2022-10-31T04:29:28;10.77;;;5.13;;
9657;SDS011;4867;48.112;11.622;2022-10-31T04:31:55;10.57;;;4.77;;
9657;SDS011;4867;48.112;11.622;2022-10-31T04:34:22;8.13;;;4.97;;
9657;SDS011;4867;48.112;11.622;2022-10-31T04:36:50;9.17;;;5.20;;
9657;SDS011;4867;48.112;11.622;2022-10-31T04:39:18;10.10;;;5.10;;
9657;SDS011;4867;48.112;11.622;2022-10-31T04:42:10;11.67;;;5.10;;
9657;SDS011;4867;48.112;11.622;2022-10-31T04:44:38;9.37;;;5.20;;
9657;SDS011;4867;48.112;11.622;2022-10-31T04:47:05;8.77;;;4.87;;
9657;SDS011;4867;48.112;11.622;2022-10-31T04:49:32;7.67;;;4.77;;
9657;SDS011;4867;48.112;11.622;2022-10-31T04:52:00;10.37;;;4.90;;
9657;SDS011;4867;48.112;11.622;2022-10-31T04:54:27;8.23;;;4.73;;
9657;SDS011;4867;48.112;11.622;2022-10-31T04:57:13;8.33;;;4.90;;
9657;SDS011;4867;48.112;11.622;2022-10-31T04:59:44;8.27;;;4.80;;
9657;SDS011;4867;48.112;11.622;2022-10-31T05:02:12;8.63;;;4.50;;
9657;SDS011;4867;48.112;11.622;2022-10-31T05:04:52;8.23;;;5.10;;
9657;SDS011;4867;48.112;11.622;2022-10-31T05:07:20;7.03;;;4.57;;
9657;SDS011;4867;48.112;11.622;2022-10-31T05:09:47;6.37;;;4.00;;
9657;SDS011;4867;48.112;11.622;2022-10-31T05:12:14;7.60;;;4.40;;
9657;SDS011;4867;48.112;11.622;2022-10-31T05:15:00;9.07;;;5.10;;
9657;SDS011;4867;48.112;11.622;2022-10-31T05:17:47;10.13;;;4.70;;
9657;SDS011;4867;48.112;11.622;2022-10-31T05:20:33;9.13;;;4.43;;
9657;SDS011;4867;48.112;11.622;2022-10-31T05:23:11;10.10;;;6.10;;
9657;SDS011;4867;48.112;11.622;2022-10-31T05:25:40;13.77;;;5.73;;
9657;SDS011;4867;48.112;11.622;2022-10-31T05:28:08;10.37;;;5.67;;
9657;SDS011;4867;48.112;11.622;2022-10-31T05:30:35;9.00;;;5.70;;
9657;SDS011;4867;48.112;11.622;2022-10-31T05:33:06;12.47;;;5.67;;
9657;SDS011;4867;48.112;11.622;2022-10-31T05:35:53;10.57;;;5.53;;
9657;SDS011;4867;48.112;11.622;2022-10-31T05:38:41;6.97;;;4.00;;
9657;SDS011;4867;48.112;11.622;2022-10-31T05:41:27;8.07;;;4.57;;
9657;SDS011;4867;48.112;11.622;2022-10-31T05:44:03;9.10;;;5.73;;
9657;SDS011;4867;48.112;11.622;2022-10-31T05:46:37;8.10;;;5.07;;
9657;SDS011;4867;48.112;11.622;2022-10-31T05:49:23;10.93;;;5.53;;
9657;SDS011;4867;48.112;11.622;2022-10-31T05:52:17;9.70;;;5.00;;
9657;SDS011;4867;48.112;11.622;2022-10-31T05:54:52;8.87;;;4.67;;
9657;SDS011;4867;48.112;11.622;2022-10-31T05:57:20;9.67;;;5.37;;
9657;SDS011;4867;48.112;11.622;2022-10-31T05:59:47;10.63;;;4.87;;
9657;SDS011;4867;48.112;11.622;2022-10-31T06:02:21;9.60;;;5.20;;
9657;SDS011;4867;48.112;11.622;2022-10-31T06:05:15;12.67;;;5.10;;
9657;SDS011;4867;48.112;11.622;2022-10-31T06:07:43;13.20;;;5.20;;
9657;SDS011;4867;48.112;11.622;2022-10-31T06:10:11;8.70;;;5.10;;
9657;SDS011;4867;48.112;11.622;2022-10-31T06:12:38;10.77;;;5.07;;
9657;SDS011;4867;48.112;11.622;2022-10-31T06:15:18;9.37;;;5.00;;
9657;SDS011;4867;48.112;11.622;2022-10-31T06:17:58;10.43;;;5.23;;
9657;SDS011;4867;48.112;11.622;2022-10-31T06:20:34;8.47;;;4.53;;
9657;SDS011;4867;48.112;11.622;2022-10-31T06:23:03;6.87;;;4.40;;
9657;SDS011;4867;48.112;11.622;2022-10-31T06:25:32;8.27;;;3.77;;
9657;SDS011;4867;48.112;11.622;2022-10-31T06:28:00;7.03;;;4.40;;
9657;SDS011;4867;48.112;11.622;2022-10-31T06:30:37;7.90;;;4.43;;
9657;SDS011;4867;48.112;11.622;2022-10-31T06:33:05;10.03;;;4.53;;
9657;SDS011;4867;48.112;11.622;2022-10-31T06:35:36;7.10;;;4.30;;
9657;SDS011;4867;48.112;11.622;2022-10-31T06:38:03;8.67;;;4.50;;
9657;SDS011;4867;48.112;11.622;2022-10-31T06:40:40;8.87;;;4.70;;
9657;SDS011;4867;48.112;11.622;2022-10-31T06:43:16;7.80;;;4.20;;
9657;SDS011;4867;48.112;11.622;2022-10-31T06:45:44;8.10;;;4.83;;
9657;SDS011;4867;48.112;11.622;2022-10-31T06:48:21;7.17;;;4.80;;
9657;SDS011;4867;48.112;11.622;2022-10-31T06:51:07;8.27;;;4.70;;
9657;SDS011;4867;48.112;11.622;2022-10-31T06:53:34;9.47;;;4.13;;
9657;SDS011;4867;48.112;11.622;2022-10-31T06:56:03;9.93;;;4.63;;
9657;SDS011;4867;48.112;11.622;2022-10-31T06:58:36;8.93;;;4.57;;
9657;SDS011;4867;48.112;11.622;2022-10-31T07:01:06;9.90;;;5.00;;
9657;SDS011;4867;48.112;11.622;2022-10-31T07:03:34;7.33;;;4.20;;
9657;SDS011;4867;48.112;11.622;2022-10-31T07:06:01;11.37;;;5.30;;
9657;SDS011;4867;48.112;11.622;2022-10-31T07:08:29;7.27;;;5.00;;
9657;SDS011;4867;48.112;11.622;2022-10-31T07:10:57;10.77;;;4.80;;
9657;SDS011;4867;48.112;11.622;2022-10-31T07:13:27;11.20;;;5.20;;
9657;SDS011;4867;48.112;11.622;2022-10-31T07:16:03;10.93;;;5.00;;
9657;SDS011;4867;48.112;11.622;2022-10-31T07:18:35;7.23;;;4.23;;
9657;SDS011;4867;48.112;11.622;2022-10-31T07:21:02;10.53;;;4.73;;
9657;SDS011;4867;48.112;11.622;2022-10-31T07:23:30;7.53;;;4.90;;
9657;SDS011;4867;48.112;11.622;2022-10-31T07:26:24;9.90;;;4.40;;
9657;SDS011;4867;48.112;11.622;2022-10-31T07:28:53;12.77;;;4.47;;
9657;SDS011;4867;48.112;11.622;2022-10-31T07:31:23;14.93;;;4.90;;
9657;SDS011;4867;48.112;11.622;2022-10-31T07:33:54;10.10;;;4.40;;
9657;SDS011;4867;48.112;11.622;2022-10-31T07:36:27;12.13;;;4.13;;
9657;SDS011;4867;48.112;11.622;2022-10-31T07:39:02;9.47;;;4.10;;
9657;SDS011;4867;48.112;11.622;2022-10-31T07:41:31;13.60;;;4.70;;
9657;SDS011;4867;48.112;11.622;2022-10-31T07:43:59;11.83;;;5.30;;
9657;SDS011;4867;48.112;11.622;2022-10-31T07:46:29;10.13;;;4.40;;
9657;SDS011;4867;48.112;11.622;2022-10-31T07:49:15;11.77;;;6.13;;
9657;SDS011;4867;48.112;11.622;2022-10-31T07:52:01;9.40;;;4.57;;
9657;SDS011;4867;48.112;11.622;2022-10-31T07:54:48;10.57;;;4.90;;
9657;SDS011;4867;48.112;11.622;2022-10-31T07:57:21;11.73;;;5.70;;
9657;SDS011;4867;48.112;11.622;2022-10-31T07:59:51;8.03;;;5.10;;
9657;SDS011;4867;48.112;11.622;2022-10-31T08:02:18;12.67;;;5.43;;
9657;SDS011;4867;48.112;11.622;2022-10-31T08:05:05;9.67;;;4.67;;
9657;SDS011;4867;48.112;11.622;2022-10-31T08:07:35;12.83;;;6.27;;
9657;SDS011;4867;48.112;11.622;2022-10-31T08:10:06;11.13;;;7.13;;
9657;SDS011;4867;48.112;11.622;2022-10-31T08:12:34;10.33;;;5.33;;
9657;SDS011;4867;48.112;11.622;2022-10-31T08:15:06;17.27;;;8.00;;
9657;SDS011;4867;48.112;11.622;2022-10-31T08:17:35;17.53;;;8.73;;
9657;SDS011;4867;48.112;11.622;2022-10-31T08:20:03;12.93;;;6.93;;
9657;SDS011;4867;48.112;11.622;2022-10-31T08:22:35;10.73;;;5.17;;
9657;SDS011;4867;48.112;11.622;2022-10-31T08:25:09;11.40;;;4.50;;
9657;SDS011;4867;48.112;11.622;2022-10-31T08:27:38;12.17;;;6.90;;
9657;SDS011;4867;48.112;11.622;2022-10-31T08:30:08;11.60;;;6.90;;
9657;SDS011;4867;48.112;11.622;2022-10-31T08:32:40;12.53;;;6.73;;
9657;SDS011;4867;48.112;11.622;2022-10-31T08:35:26;15.43;;;7.07;;
9657;SDS011;4867;48.112;11.622;2022-10-31T08:38:28;12.37;;;6.87;;
9657;SDS011;4867;48.112;11.622;2022-10-31T08:40:56;10.73;;;6.43;;
9657;SDS011;4867;48.112;11.622;2022-10-31T08:43:23;11.20;;;7.37;;
9657;SDS011;4867;48.112;11.622;2022-10-31T08:45:50;13.03;;;6.90;;
9657;SDS011;4867;48.112;11.622;2022-10-31T08:48:25;11.13;;;7.30;;
9657;SDS011;4867;48.112;11.622;2022-10-31T08:50:55;13.57;;;7.60;;
9657;SDS011;4867;48.112;11.622;2022-10-31T08:53:24;13.77;;;7.37;;
9657;SDS011;4867;48.112;11.622;2022-10-31T08:56:04;10.27;;;7.37;;
9657;SDS011;4867;48.112;11.622;2022-10-31T08:58:34;13.37;;;6.83;;
9657;SDS011;4867;48.112;11.622;2022-10-31T09:01:06;11.50;;;7.00;;
9657;SDS011;4867;48.112;11.622;2022-10-31T09:03:35;9.87;;;7.03;;
9657;SDS011;4867;48.112;11.622;2022-10-31T09:06:02;14.23;;;7.73;;
9657;SDS011;4867;48.112;11.622;2022-10-31T09:08:36;11.13;;;6.40;;
9657;SDS011;4867;48.112;11.622;2022-10-31T09:11:04;15.93;;;8.03;;
9657;SDS011;4867;48.112;11.622;2022-10-31T09:14:05;21.83;;;10.50;;
9657;SDS011;4867;48.112;11.622;2022-10-31T09:16:32;16.67;;;10.03;;
9657;SDS011;4867;48.112;11.622;2022-10-31T09:19:00;17.80;;;10.33;;
9657;SDS011;4867;48.112;11.622;2022-10-31T09:21:27;12.93;;;7.70;;
9657;SDS011;4867;48.112;11.622;2022-10-31T09:23:57;14.43;;;9.40;;
9657;SDS011;4867;48.112;11.622;2022-10-31T09:26:25;14.87;;;8.17;;
9657;SDS011;4867;48.112;11.622;2022-10-31T09:29:02;12.27;;;7.73;;
9657;SDS011;4867;48.112;11.622;2022-10-31T09:31:30;11.80;;;6.60;;
9657;SDS011;4867;48.112;11.622;2022-10-31T09:34:05;13.73;;;7.03;;
9657;SDS011;4867;48.112;11.622;2022-10-31T09:36:36;10.87;;;6.47;;
9657;SDS011;4867;48.112;11.622;2022-10-31T09:39:07;16.27;;;7.13;;
9657;SDS011;4867;48.112;11.622;2022-10-31T09:44:28;13.23;;;6.67;;
9657;SDS011;4867;48.112;11.622;2022-10-31T09:50:37;9.63;;;6.70;;
9657;SDS011;4867;48.112;11.622;2022-10-31T09:53:39;15.73;;;5.23;;
9657;SDS011;4867;48.112;11.622;2022-10-31T09:56:21;9.97;;;5.30;;
9657;SDS011;4867;48.112;11.622;2022-10-31T09:58:54;9.30;;;4.87;;
9657;SDS011;4867;48.112;11.622;2022-10-31T10:04:28;8.70;;;4.57;;
9657;SDS011;4867;48.112;11.622;2022-10-31T10:07:07;12.50;;;6.47;;
9657;SDS011;4867;48.112;11.622;2022-10-31T10:09:43;9.07;;;4.90;;
9657;SDS011;4867;48.112;11.622;2022-10-31T10:20:39;7.90;;;4.90;;
9657;SDS011;4867;48.112;11.622;2022-10-31T10:25:59;9.40;;;4.43;;
9657;SDS011;4867;48.112;11.622;2022-10-31T10:28:37;9.97;;;4.20;;
9657;SDS011;4867;48.112;11.622;2022-10-31T10:31:10;10.50;;;4.13;;
9657;SDS011;4867;48.112;11.622;2022-10-31T10:34:23;7.83;;;4.17;;
9657;SDS011;4867;48.112;11.622;2022-10-31T10:36:45;10.30;;;4.47;;
9657;SDS011;4867;48.112;11.622;2022-10-31T10:39:22;11.57;;;4.67;;
9657;SDS011;4867;48.112;11.622;2022-10-31T10:41:52;9.93;;;4.20;;
9657;SDS011;4867;48.112;11.622;2022-10-31T10:44:38;11.43;;;4.90;;
9657;SDS011;4867;48.112;11.622;2022-10-31T10:47:30;15.13;;;4.20;;
9657;SDS011;4867;48.112;11.622;2022-10-31T10:50:23;7.60;;;3.80;;
9657;SDS011;4867;48.112;11.622;2022-10-31T10:53:06;10.23;;;4.50;;
9657;SDS011;4867;48.112;11.622;2022-10-31T10:58:57;12.00;;;5.87;;
9657;SDS011;4867;48.112;11.622;2022-10-31T11:01:24;12.00;;;4.70;;
9657;SDS011;4867;48.112;11.622;2022-10-31T11:03:52;9.63;;;4.50;;
9657;SDS011;4867;48.112;11.622;2022-10-31T11:06:20;8.70;;;3.97;;
9657;SDS011;4867;48.112;11.622;2022-10-31T11:08:52;9.67;;;4.33;;
9657;SDS011;4867;48.112;11.622;2022-10-31T11:13:54;14.40;;;4.87;;
9657;SDS011;4867;48.112;11.622;2022-10-31T11:16:40;15.47;;;5.47;;
9657;SDS011;4867;48.112;11.622;2022-10-31T11:19:17;11.87;;;5.20;;
9657;SDS011;4867;48.112;11.622;2022-10-31T11:21:49;10.17;;;4.23;;
9657;SDS011;4867;48.112;11.622;2022-10-31T11:24:23;10.50;;;4.57;;
9657;SDS011;4867;48.112;11.622;2022-10-31T11:27:16;9.00;;;3.90;;
9657;SDS011;4867;48.112;11.622;2022-10-31T11:29:43;15.37;;;4.47;;
9657;SDS011;4867;48.112;11.622;2022-10-31T11:32:21;10.63;;;4.60;;
9657;SDS011;4867;48.112;11.622;2022-10-31T11:34:54;11.10;;;6.20;;
9657;SDS011;4867;48.112;11.622;2022-10-31T11:37:28;10.20;;;4.30;;
9657;SDS011;4867;48.112;11.622;2022-10-31T11:39:59;10.33;;;4.40;;
9657;SDS011;4867;48.112;11.622;2022-10-31T11:42:35;9.60;;;4.83;;
9657;SDS011;4867;48.112;11.622;2022-10-31T11:45:07;17.60;;;5.63;;
9657;SDS011;4867;48.112;11.622;2022-10-31T11:47:54;11.33;;;4.43;;
9657;SDS011;4867;48.112;11.622;2022-10-31T11:50:32;11.13;;;4.60;;
9657;SDS011;4867;48.112;11.622;2022-10-31T11:53:03;8.73;;;4.10;;
9657;SDS011;4867;48.112;11.622;2022-10-31T11:55:39;10.87;;;4.13;;
9657;SDS011;4867;48.112;11.622;2022-10-31T11:58:25;16.13;;;6.00;;
9657;SDS011;4867;48.112;11.622;2022-10-31T12:00:54;10.83;;;4.33;;
9657;SDS011;4867;48.112;11.622;2022-10-31T12:06:03;12.13;;;4.20;;
9657;SDS011;4867;48.112;11.622;2022-10-31T12:09:10;10.93;;;5.13;;
9657;SDS011;4867;48.112;11.622;2022-10-31T12:11:53;11.47;;;5.10;;
9657;SDS011;4867;48.112;11.622;2022-10-31T12:17:15;12.23;;;5.00;;
9657;SDS011;4867;48.112;11.622;2022-10-31T12:20:00;9.17;;;4.70;;
9657;SDS011;4867;48.112;11.622;2022-10-31T12:28:25;15.97;;;5.03;;
9657;SDS011;4867;48.112;11.622;2022-10-31T12:32:03;11.47;;;5.13;;
9657;SDS011;4867;48.112;11.622;2022-10-31T12:39:19;9.30;;;5.17;;
9657;SDS011;4867;48.112;11.622;2022-10-31T12:45:03;11.20;;;4.93;;
9657;SDS011;4867;48.112;11.622;2022-10-31T12:50:31;15.00;;;5.47;;
9657;SDS011;4867;48.112;11.622;2022-10-31T12:58:43;13.10;;;5.27;;
9657;SDS011;4867;48.112;11.622;2022-10-31T13:01:17;12.60;;;5.17;;
9657;SDS011;4867;48.112;11.622;2022-10-31T13:04:12;14.33;;;5.20;;
9657;SDS011;4867;48.112;11.622;2022-10-31T13:06:44;17.33;;;5.40;;
9657;SDS011;4867;48.112;11.622;2022-10-31T13:09:18;10.57;;;4.87;;
9657;SDS011;4867;48.112;11.622;2022-10-31T13:11:53;11.93;;;5.17;;
9657;SDS011;4867;48.112;11.622;2022-10-31T13:17:14;11.77;;;4.60;;
9657;SDS011;4867;48.112;11.622;2022-10-31T13:19:53;11.10;;;5.33;;
9657;SDS011;4867;48.112;11.622;2022-10-31T13:22:26;11.60;;;4.90;;
9657;SDS011;4867;48.112;11.622;2022-10-31T13:27:53;11.17;;;5.10;;
9657;SDS011;4867;48.112;11.622;2022-10-31T13:30:31;13.57;;;6.33;;
9657;SDS011;4867;48.112;11.622;2022-10-31T13:33:06;13.03;;;6.63;;
9657;SDS011;4867;48.112;11.622;2022-10-31T13:41:20;10.13;;;4.97;;
9657;SDS011;4867;48.112;11.622;2022-10-31T13:43:59;12.67;;;6.10;;
9657;SDS011;4867;48.112;11.622;2022-10-31T13:46:51;11.07;;;5.97;;
9657;SDS011;4867;48.112;11.622;2022-10-31T13:54:42;13.20;;;5.73;;
9657;SDS011;4867;48.112;11.622;2022-10-31T13:57:18;9.53;;;4.90;;
9657;SDS011;4867;48.112;11.622;2022-10-31T14:00:01;13.83;;;5.27;;
9657;SDS011;4867;48.112;11.622;2022-10-31T14:02:43;13.33;;;4.90;;
9657;SDS011;4867;48.112;11.622;2022-10-31T14:05:22;12.90;;;5.43;;
9657;SDS011;4867;48.112;11.622;2022-10-31T14:07:52;15.03;;;5.93;;
9657;SDS011;4867;48.112;11.622;2022-10-31T14:15:34;16.40;;;6.43;;
9657;SDS011;4867;48.112;11.622;2022-10-31T14:18:05;22.43;;;6.50;;
9657;SDS011;4867;48.112;11.622;2022-10-31T14:20:43;11.87;;;5.73;;
9657;SDS011;4867;48.112;11.622;2022-10-31T14:25:38;15.00;;;7.47;;
9657;SDS011;4867;48.112;11.622;2022-10-31T14:28:19;16.57;;;5.67;;
9657;SDS011;4867;48.112;11.622;2022-10-31T14:30:59;12.33;;;5.20;;
9657;SDS011;4867;48.112;11.622;2022-10-31T14:33:28;14.23;;;6.00;;
9657;SDS011;4867;48.112;11.622;2022-10-31T14:41:45;17.83;;;5.83;;
9657;SDS011;4867;48.112;11.622;2022-10-31T14:47:36;23.03;;;6.83;;
9657;SDS011;4867;48.112;11.622;2022-10-31T14:50:17;13.07;;;6.73;;
9657;SDS011;4867;48.112;11.622;2022-10-31T14:52:51;24.37;;;7.83;;
9657;SDS011;4867;48.112;11.622;2022-10-31T14:55:21;16.33;;;6.00;;
9657;SDS011;4867;48.112;11.622;2022-10-31T14:57:52;10.00;;;5.10;;
9657;SDS011;4867;48.112;11.622;2022-10-31T15:00:32;11.97;;;5.80;;
9657;SDS011;4867;48.112;11.622;2022-10-31T15:05:49;19.00;;;5.27;;
9657;SDS011;4867;48.112;11.622;2022-10-31T15:08:37;9.10;;;5.00;;
9657;SDS011;4867;48.112;11.622;2022-10-31T15:11:13;11.03;;;5.33;;
9657;SDS011;4867;48.112;11.622;2022-10-31T15:13:41;10.73;;;5.07;;
9657;SDS011;4867;48.112;11.622;2022-10-31T15:16:14;21.37;;;6.23;;
9657;SDS011;4867;48.112;11.622;2022-10-31T15:18:46;14.53;;;5.67;;
9657;SDS011;4867;48.112;11.622;2022-10-31T15:21:16;12.40;;;6.13;;
9657;SDS011;4867;48.112;11.622;2022-10-31T15:23:44;11.87;;;5.33;;
9657;SDS011;4867;48.112;11.622;2022-10-31T15:26:19;13.20;;;5.53;;
9657;SDS011;4867;48.112;11.622;2022-10-31T15:29:01;12.00;;;6.03;;
9657;SDS011;4867;48.112;11.622;2022-10-31T15:31:30;14.03;;;5.33;;
9657;SDS011;4867;48.112;11.622;2022-10-31T15:34:00;13.83;;;5.50;;
9657;SDS011;4867;48.112;11.622;2022-10-31T15:36:34;13.27;;;5.53;;
9657;SDS011;4867;48.112;11.622;2022-10-31T15:39:04;12.77;;;6.20;;
9657;SDS011;4867;48.112;11.622;2022-10-31T15:41:33;13.07;;;7.10;;
9657;SDS011;4867;48.112;11.622;2022-10-31T15:44:10;12.97;;;6.40;;
9657;SDS011;4867;48.112;11.622;2022-10-31T15:46:43;15.33;;;6.13;;
9657;SDS011;4867;48.112;11.622;2022-10-31T15:49:18;17.00;;;6.30;;
9657;SDS011;4867;48.112;11.622;2022-10-31T15:52:07;14.83;;;7.10;;
9657;SDS011;4867;48.112;11.622;2022-10-31T15:54:48;11.90;;;7.00;;
9657;SDS011;4867;48.112;11.622;2022-10-31T15:57:18;17.37;;;9.37;;
9657;SDS011;4867;48.112;11.622;2022-10-31T15:59:46;20.90;;;11.30;;
9657;SDS011;4867;48.112;11.622;2022-10-31T16:02:17;13.73;;;9.93;;
9657;SDS011;4867;48.112;11.622;2022-10-31T16:05:34;23.57;;;10.83;;
9657;SDS011;4867;48.112;11.622;2022-10-31T16:07:49;27.97;;;10.87;;
9657;SDS011;4867;48.112;11.622;2022-10-31T16:10:22;43.93;;;11.90;;
9657;SDS011;4867;48.112;11.622;2022-10-31T16:12:53;22.03;;;9.57;;
9657;SDS011;4867;48.112;11.622;2022-10-31T16:15:20;31.47;;;12.67;;
9657;SDS011;4867;48.112;11.622;2022-10-31T16:17:48;26.80;;;12.50;;
9657;SDS011;4867;48.112;11.622;2022-10-31T16:20:25;18.73;;;11.20;;
9657;SDS011;4867;48.112;11.622;2022-10-31T16:22:55;24.03;;;10.87;;
9657;SDS011;4867;48.112;11.622;2022-10-31T16:25:28;17.00;;;10.47;;
9657;SDS011;4867;48.112;11.622;2022-10-31T16:28:04;52.57;;;13.10;;
9657;SDS011;4867;48.112;11.622;2022-10-31T16:30:41;18.17;;;9.63;;
9657;SDS011;4867;48.112;11.622;2022-10-31T16:33:30;16.60;;;10.13;;
9657;SDS011;4867;48.112;11.622;2022-10-31T16:39:02;20.93;;;13.63;;
9657;SDS011;4867;48.112;11.622;2022-10-31T16:41:29;17.90;;;12.47;;
9657;SDS011;4867;48.112;11.622;2022-10-31T16:43:59;26.07;;;12.83;;
9657;SDS011;4867;48.112;11.622;2022-10-31T16:46:28;18.93;;;12.17;;
9657;SDS011;4867;48.112;11.622;2022-10-31T16:48:55;24.03;;;12.97;;
9657;SDS011;4867;48.112;11.622;2022-10-31T16:51:24;19.53;;;11.73;;
9657;SDS011;4867;48.112;11.622;2022-10-31T16:53:51;20.87;;;12.43;;
9657;SDS011;4867;48.112;11.622;2022-10-31T16:56:27;18.33;;;12.77;;
9657;SDS011;4867;48.112;11.622;2022-10-31T16:58:56;22.47;;;12.33;;
9657;SDS011;4867;48.112;11.622;2022-10-31T17:01:25;19.77;;;11.67;;
9657;SDS011;4867;48.112;11.622;2022-10-31T17:03:53;18.57;;;11.97;;
9657;SDS011;4867;48.112;11.622;2022-10-31T17:06:20;24.60;;;12.23;;
9657;SDS011;4867;48.112;11.622;2022-10-31T17:08:47;22.03;;;12.97;;
9657;SDS011;4867;48.112;11.622;2022-10-31T17:11:18;22.70;;;15.13;;
9657;SDS011;4867;48.112;11.622;2022-10-31T17:13:49;23.73;;;14.93;;
9657;SDS011;4867;48.112;11.622;2022-10-31T17:16:16;28.30;;;15.40;;
9657;SDS011;4867;48.112;11.622;2022-10-31T17:18:43;21.93;;;15.57;;
9657;SDS011;4867;48.112;11.622;2022-10-31T17:21:15;24.00;;;13.90;;
9657;SDS011;4867;48.112;11.622;2022-10-31T17:23:49;22.33;;;15.90;;
9657;SDS011;4867;48.112;11.622;2022-10-31T17:26:17;25.87;;;14.57;;
9657;SDS011;4867;48.112;11.622;2022-10-31T17:28:44;21.23;;;14.13;;
9657;SDS011;4867;48.112;11.622;2022-10-31T17:31:22;25.63;;;16.27;;
9657;SDS011;4867;48.112;11.622;2022-10-31T17:33:54;27.93;;;21.60;;